Time;durP1;ratioP1;P1;durP2;ratioP2;P2;SDS_P1;SDS_P2;PMS_P1;PMS_P2;Temp;Humidity;BMP_temperature;BMP_pressure;BME280_temperature;BME280_humidity;BME280_pressure;Samples;Min_cycle;Max_cycle;Signal;HPM_P1;HPM_P2
2022/04/19 00:01:00;;;;;;;4.17;1.50;;;;;;;5.20;72.32;100909.03;2088946;28;20287;-63
2022/04/19 00:02:03;;;;;;;4.90;1.40;;;;;;;5.19;72.63;100901.25;2098002;28;20282;-63
2022/04/19 00:03:07;;;;;;;4.27;1.50;;;;;;;5.19;72.50;100910.03;2105601;28;20282;-63
2022/04/19 00:04:10;;;;;;;2.57;1.40;;;;;;;5.22;72.88;100914.91;2104640;28;20293;-63
2022/04/19 00:05:13;;;;;;;4.47;1.33;;;;;;;5.24;72.63;100904.03;2105060;28;20287;-62
2022/04/19 00:06:15;;;;;;;2.13;1.00;;;;;;;5.20;73.04;100898.34;2104428;28;20278;-64
2022/04/19 00:07:18;;;;;;;3.53;1.30;;;;;;;5.25;72.55;100903.78;2105052;28;20797;-63
2022/04/19 00:08:23;;;;;;;2.50;1.57;;;;;;;5.34;72.94;100899.72;2089632;28;20302;-62
2022/04/19 00:09:27;;;;;;;4.20;1.50;;;;;;;5.35;72.72;100901.31;2097071;28;20692;-61
2022/04/19 00:10:34;;;;;;;3.80;1.53;;;;;;;5.37;72.56;100897.63;2098182;28;20293;-62
2022/04/19 00:11:42;;;;;;;2.93;1.20;;;;;;;5.30;72.56;100897.75;2112514;28;20289;-64
2022/04/19 00:12:47;;;;;;;7.53;1.67;;;;;;;5.24;73.48;100899.50;2086437;28;20284;-61
2022/04/19 00:13:55;;;;;;;9.43;1.40;;;;;;;5.22;72.73;100904.25;2073490;28;20293;-63
2022/04/19 00:14:57;;;;;;;4.97;1.60;;;;;;;5.18;73.31;100900.44;2089588;28;20279;-64
2022/04/19 00:16:02;;;;;;;7.47;1.60;;;;;;;5.23;73.68;100899.72;2102237;28;20277;-61
2022/04/19 00:17:11;;;;;;;6.30;1.43;;;;;;;5.23;73.08;100897.88;2105880;28;20289;-62
2022/04/19 00:18:16;;;;;;;5.87;1.30;;;;;;;5.27;73.39;100903.56;2105439;28;20278;-64
2022/04/19 00:19:20;;;;;;;3.27;1.27;;;;;;;5.25;73.92;100900.31;2104530;28;20278;-62
2022/04/19 00:20:31;;;;;;;5.87;1.43;;;;;;;5.25;73.20;100901.13;2104629;28;20293;-61
2022/04/19 00:21:32;;;;;;;;;;;;;;;5.24;74.00;100893.38;2090487;28;20291;-62
2022/04/19 00:22:36;;;;;;;5.20;1.30;;;;;;;5.32;73.98;100896.47;2080399;28;19921;-62
2022/04/19 00:23:38;;;;;;;2.97;1.27;;;;;;;5.25;73.91;100893.13;2088744;28;20295;-61
2022/04/19 00:24:40;;;;;;;4.07;1.50;;;;;;;5.17;73.24;100893.50;2096770;28;20832;-61
2022/04/19 00:25:46;;;;;;;4.00;1.40;;;;;;;5.14;74.09;100888.63;2097284;28;20270;-62
2022/04/19 00:26:51;;;;;;;3.37;1.47;;;;;;;5.09;74.49;100891.97;2097218;28;20338;-62
2022/04/19 00:27:58;;;;;;;3.43;1.30;;;;;;;5.14;74.13;100888.63;2096662;28;20287;-62
2022/04/19 00:29:02;;;;;;;2.65;1.48;;;;;;;5.17;74.36;100898.00;2090458;28;20687;-62
2022/04/19 00:30:04;;;;;;;3.70;1.20;;;;;;;5.19;74.62;100890.59;2080668;28;20772;-62
2022/04/19 00:31:06;;;;;;;5.80;1.70;;;;;;;5.17;74.69;100888.16;2081944;28;20279;-63
2022/04/19 00:32:09;;;;;;;4.70;1.60;;;;;;;5.16;74.17;100883.84;2097795;28;20290;-63
2022/04/19 00:33:11;;;;;;;2.57;1.50;;;;;;;5.16;74.50;100889.19;2097900;28;20279;-63
2022/04/19 00:34:16;;;;;;;3.70;1.60;;;;;;;5.17;73.95;100888.16;2098884;28;20287;-62
2022/04/19 00:35:23;;;;;;;3.37;1.50;;;;;;;5.21;73.80;100889.31;2091063;28;20663;-63
2022/04/19 00:36:28;;;;;;;3.27;1.47;;;;;;;5.17;74.06;100892.66;2092150;28;20271;-63
2022/04/19 00:37:30;;;;;;;6.07;1.47;;;;;;;5.17;74.41;100890.84;2082336;28;20414;-62
2022/04/19 00:38:34;;;;;;;2.97;1.30;;;;;;;5.14;74.10;100880.63;2082827;28;20811;-63
2022/04/19 00:39:38;;;;;;;4.73;1.70;;;;;;;5.16;74.54;100889.19;2083579;28;20292;-63
2022/04/19 00:40:40;;;;;;;3.93;1.30;;;;;;;5.15;74.04;100890.25;2090216;28;20299;-63
2022/04/19 00:41:42;;;;;;;4.17;1.33;;;;;;;5.15;73.88;100884.09;2097127;28;20291;-63
2022/04/19 00:42:46;;;;;;;4.87;1.50;;;;;;;5.15;74.19;100884.09;2099052;28;20282;-64
2022/04/19 00:43:49;;;;;;;6.60;1.40;;;;;;;5.19;74.10;100883.38;2089736;28;20303;-63
2022/04/19 00:44:58;;;;;;;5.07;1.40;;;;;;;5.24;74.54;100882.69;2083838;28;20311;-64
2022/04/19 00:46:03;;;;;;;5.30;2.10;;;;;;;5.27;74.62;100883.03;2098974;28;20275;-62
2022/04/19 00:47:10;;;;;;;2.70;1.30;;;;;;;5.30;74.72;100874.56;2089923;28;20287;-61
2022/04/19 00:48:21;;;;;;;4.80;1.63;;;;;;;5.25;74.28;100882.44;2091327;28;20283;-61
2022/04/19 00:49:28;;;;;;;4.23;1.37;;;;;;;5.25;74.19;100882.44;2092722;28;20295;-64
2022/04/19 00:50:31;;;;;;;5.20;1.43;;;;;;;5.23;74.40;100871.22;2098750;28;20278;-62
2022/04/19 00:51:39;;;;;;;2.43;1.40;;;;;;;5.25;74.49;100873.66;2090424;28;20284;-63
2022/04/19 00:52:43;;;;;;;4.00;1.50;;;;;;;5.24;74.66;100875.50;2091844;28;20639;-62
2022/04/19 00:53:49;;;;;;;4.73;1.43;;;;;;;5.18;74.29;100876.44;2097570;28;20287;-62
2022/04/19 00:54:51;;;;;;;5.17;1.70;;;;;;;5.21;74.20;100875.19;2082043;28;20288;-63
2022/04/19 00:55:57;;;;;;;4.20;1.40;;;;;;;5.17;74.75;100872.16;2074464;28;20276;-62
2022/04/19 00:57:06;;;;;;;4.57;1.50;;;;;;;5.16;74.56;100875.84;2084047;28;20287;-61
2022/04/19 00:58:09;;;;;;;3.17;1.33;;;;;;;5.23;74.84;100871.22;2089856;28;20283;-61
2022/04/19 00:59:16;;;;;;;7.40;1.60;;;;;;;5.28;74.25;100876.66;2082248;28;20284;-61
2022/04/19 01:00:20;;;;;;;2.63;1.50;;;;;;;5.25;73.93;100873.66;2082550;28;20292;-62
2022/04/19 01:01:41;;;;;;;4.20;1.30;;;;;;;5.32;73.70;100864.47;2093742;28;20279;-63
2022/04/19 01:02:47;;;;;;;4.43;1.47;;;;;;;5.37;74.35;100865.63;2098059;28;20291;-62
2022/04/19 01:03:49;;;;;;;4.50;1.30;;;;;;;5.39;73.67;100866.19;2089726;28;20291;-62
2022/04/19 01:04:56;;;;;;;7.50;1.47;;;;;;;5.33;73.50;100867.97;2098902;28;20289;-62
2022/04/19 01:06:00;;;;;;;3.83;1.50;;;;;;;5.35;73.83;100869.31;2073648;28;20297;-62
2022/04/19 01:07:04;;;;;;;6.93;1.40;;;;;;;5.42;73.57;100863.84;2065997;28;20401;-61
2022/04/19 01:08:10;;;;;;;3.10;1.63;;;;;;;5.42;73.98;100868.38;2081753;28;20272;-63
2022/04/19 01:09:14;;;;;;;5.97;1.77;;;;;;;5.43;74.52;100865.50;2082957;28;20728;-61
2022/04/19 01:10:17;;;;;;;4.90;1.93;;;;;;;5.48;73.73;100856.78;2081876;28;20283;-62
2022/04/19 01:14:15;;;;;;;9.50;1.70;;;;;;;5.43;73.85;100854.81;2080039;28;20698;-62
2022/04/19 01:15:19;;;;;;;5.23;1.93;;;;;;;5.47;73.55;100855.16;2085195;28;20949;-63
2022/04/19 01:16:53;;;;;;;6.87;1.50;;;;;;;5.52;73.85;100857.94;2091529;28;20295;-62
2022/04/19 01:18:02;;;;;;;6.90;1.50;;;;;;;5.52;73.33;100857.94;2081764;28;20672;-61
2022/04/19 01:19:18;;;;;;;4.50;1.50;;;;;;;5.48;73.48;100854.91;2084604;28;20307;-63
2022/04/19 01:20:24;;;;;;;2.83;1.47;;;;;;;5.51;72.73;100850.97;2083494;28;20288;-62
2022/04/19 01:22:13;;;;;;;5.60;1.60;;;;;;;5.47;72.29;100855.16;2082043;28;20633;-61
2022/04/19 01:23:22;;;;;;;4.63;1.20;;;;;;;5.47;71.93;100839.97;2097783;28;20287;-63
2022/04/19 01:24:26;;;;;;;3.23;1.40;;;;;;;5.56;72.29;100851.88;2096956;28;20278;-63
2022/04/19 01:25:28;;;;;;;4.07;1.13;;;;;;;5.57;72.29;100847.34;2097164;28;20778;-64
2022/04/19 01:26:35;;;;;;;4.20;1.27;;;;;;;5.60;71.47;100854.88;2089997;28;20295;-64
2022/04/19 01:27:43;;;;;;;5.17;1.23;;;;;;;5.63;71.47;100835.72;2091199;28;20287;-63
2022/04/19 01:28:45;;;;;;;2.53;1.10;;;;;;;5.58;70.61;100841.78;2098431;28;20278;-64
2022/04/19 01:30:06;;;;;;;7.07;1.20;;;;;;;5.59;70.54;100845.25;2089496;28;20302;-62
2022/04/19 01:31:12;;;;;;;9.00;1.50;;;;;;;5.61;70.78;100839.66;2089433;28;20275;-62
2022/04/19 01:32:35;;;;;;;3.27;1.20;;;;;;;5.64;70.16;100836.53;2092952;28;20295;-62
2022/04/19 01:33:38;;;;;;;6.10;1.57;;;;;;;5.63;70.09;100846.41;2098897;28;20298;-63
2022/04/19 01:35:14;;;;;;;3.40;1.53;;;;;;;5.63;69.09;100840.25;2089374;28;20291;-63
2022/04/19 01:36:23;;;;;;;3.80;1.17;;;;;;;5.65;68.92;100838.97;2084240;28;20290;-63
2022/04/19 01:37:49;;;;;;;5.33;1.30;;;;;;;5.72;68.78;100839.63;2095312;28;20279;-63
2022/04/19 01:39:15;;;;;;;2.80;1.37;;;;;;;5.77;68.26;100833.59;2097727;28;20290;-63
2022/04/19 01:40:21;;;;;;;3.83;1.13;;;;;;;5.78;68.06;100835.19;2089528;28;20283;-63
2022/04/19 01:41:29;;;;;;;3.07;1.33;;;;;;;5.79;68.14;100836.81;2089216;28;20291;-63
2022/04/19 01:42:59;;;;;;;5.63;1.37;;;;;;;5.76;67.32;100832.75;2080986;28;20279;-63
2022/04/19 01:44:26;;;;;;;3.57;1.20;;;;;;;5.84;68.00;100836.91;2096941;28;20278;-63
2022/04/19 01:45:48;;;;;;;6.13;1.30;;;;;;;5.88;67.66;100837.25;2091671;28;20298;-63
2022/04/19 01:47:01;;;;;;;2.97;1.35;;;;;;;5.89;68.04;100836.19;2085131;28;20288;-62
2022/04/19 01:48:29;;;;;;;5.17;1.30;;;;;;;5.90;67.19;100827.16;2097095;28;20044;-62
2022/04/19 01:49:32;;;;;;;1.87;1.07;;;;;;;5.93;67.47;100837.38;2097641;28;20298;-62
2022/04/19 01:50:56;;;;;;;3.20;1.30;;;;;;;6.00;67.39;100832.69;2086933;28;20344;-63
2022/04/19 01:51:58;;;;;;;3.63;1.00;;;;;;;6.01;67.50;100831.63;2089796;28;20694;-63
2022/04/19 01:53:27;;;;;;;3.40;1.27;;;;;;;6.05;67.00;100830.06;2092937;28;20278;-62
2022/04/19 01:54:30;;;;;;;1.70;1.10;;;;;;;5.98;67.35;100821.44;2073975;28;20304;-62
2022/04/19 01:55:35;;;;;;;4.47;1.47;;;;;;;6.00;67.49;100822.00;2074641;28;20875;-62
2022/04/19 01:57:14;;;;;;;3.87;1.30;;;;;;;6.03;67.84;100817.00;2094730;28;20291;-62
2022/04/19 01:58:24;;;;;;;2.65;1.40;;;;;;;5.98;67.31;100818.75;2097775;28;20879;-62
2022/04/19 01:59:28;;;;;;;2.07;1.10;;;;;;;5.92;67.95;100825.03;2089410;28;20048;-63
2022/04/19 02:00:56;;;;;;;3.97;1.20;;;;;;;5.91;68.28;100823.41;2089982;28;20333;-62
2022/04/19 02:01:59;;;;;;;2.80;1.40;;;;;;;5.97;68.03;100822.47;2088345;28;20286;-62
2022/04/19 02:03:03;;;;;;;5.17;1.37;;;;;;;5.98;68.21;100824.09;2082060;28;20358;-62
2022/04/19 02:04:08;;;;;;;3.03;1.20;;;;;;;6.00;68.73;100828.16;2090338;28;20291;-62
2022/04/19 02:05:13;;;;;;;3.37;1.30;;;;;;;5.97;68.37;100819.81;2096906;28;20746;-64
2022/04/19 02:06:17;;;;;;;3.70;1.20;;;;;;;5.94;68.72;100822.97;2095887;28;20283;-63
2022/04/19 02:07:20;;;;;;;3.00;1.10;;;;;;;5.90;68.53;100819.94;2105045;28;20278;-63
2022/04/19 02:08:25;;;;;;;3.47;1.67;;;;;;;5.82;69.46;100826.47;2089558;28;20298;-64
2022/04/19 02:09:29;;;;;;;3.57;1.20;;;;;;;5.80;69.65;100823.25;2089903;28;20829;-64
2022/04/19 02:10:32;;;;;;;3.50;1.33;;;;;;;5.86;69.35;100825.97;2089585;28;20318;-63
2022/04/19 02:11:37;;;;;;;10.00;1.93;;;;;;;5.89;69.64;100831.66;2079984;28;20291;-63
2022/04/19 02:13:03;;;;;;;3.20;1.20;;;;;;;5.86;69.13;100836.66;2083566;28;20796;-62
2022/04/19 02:14:09;;;;;;;2.40;1.10;;;;;;;5.87;69.63;100832.97;2098119;28;20267;-63
2022/04/19 02:15:16;;;;;;;5.93;1.50;;;;;;;5.79;70.05;100834.16;2088979;28;20287;-63
2022/04/19 02:16:23;;;;;;;3.15;1.50;;;;;;;5.77;69.93;100830.94;2093257;28;20276;-63
2022/04/19 02:17:26;;;;;;;4.63;1.50;;;;;;;5.68;70.37;100830.50;2105962;28;20047;-63
2022/04/19 02:18:28;;;;;;;3.17;1.50;;;;;;;5.66;70.25;100824.56;2081128;28;20821;-64
2022/04/19 02:19:33;;;;;;;3.57;1.40;;;;;;;5.69;70.85;100821.44;2089977;28;20288;-64
2022/04/19 02:20:37;;;;;;;3.90;1.30;;;;;;;5.67;70.69;100823.53;2088994;28;20296;-64
2022/04/19 02:21:40;;;;;;;4.23;1.33;;;;;;;5.62;70.51;100825.31;2074394;28;20650;-64
2022/04/19 02:22:45;;;;;;;3.50;1.23;;;;;;;5.61;71.10;100834.34;2089971;28;20292;-64
2022/04/19 02:23:52;;;;;;;5.07;1.60;;;;;;;5.53;71.19;100824.88;2097243;28;20294;-64
2022/04/19 02:24:57;;;;;;;6.77;1.40;;;;;;;5.56;71.53;100821.72;2105141;28;20278;-62
2022/04/19 02:26:05;;;;;;;5.43;1.70;;;;;;;5.54;71.78;100819.28;2097362;28;20286;-63
2022/04/19 02:27:15;;;;;;;1.75;1.10;;;;;;;5.67;71.71;100822.72;2097934;28;20283;-63
2022/04/19 02:28:24;;;;;;;4.87;1.57;;;;;;;5.69;71.04;100826.78;2105596;28;20047;-64
2022/04/19 02:30:04;;;;;;;5.80;1.40;;;;;;;5.70;71.69;100823.03;2077295;28;20298;-63
2022/04/19 02:31:08;;;;;;;;;;;;;;;5.72;71.45;100826.28;2095628;28;20275;-63
2022/04/19 02:32:12;;;;;;;4.47;1.20;;;;;;;5.74;71.07;100818.88;2097221;28;19920;-62
2022/04/19 02:33:14;;;;;;;8.03;1.60;;;;;;;5.68;70.94;100830.50;2097027;28;20662;-63
2022/04/19 02:34:21;;;;;;;5.70;1.30;;;;;;;5.64;71.06;100831.19;2096351;28;20279;-63
2022/04/19 02:35:40;;;;;;;3.33;1.20;;;;;;;5.58;70.88;100824.97;2083696;28;20291;-63
2022/04/19 02:36:46;;;;;;;3.53;1.20;;;;;;;5.61;71.00;100832.47;2084403;28;20775;-64
2022/04/19 02:37:50;;;;;;;5.93;1.40;;;;;;;5.65;71.09;100830.97;2089821;28;20279;-63
2022/04/19 02:39:01;;;;;;;4.60;1.30;;;;;;;5.69;71.16;100836.63;2089867;28;20802;-63
2022/04/19 02:40:10;;;;;;;3.43;1.20;;;;;;;5.76;71.51;100829.28;2090465;28;20278;-63
2022/04/19 02:41:12;;;;;;;3.17;1.40;;;;;;;5.75;71.25;100841.81;2089790;28;20288;-63
2022/04/19 02:42:17;;;;;;;4.27;1.40;;;;;;;5.70;70.80;100843.56;2073094;28;20891;-63
2022/04/19 02:43:20;;;;;;;2.50;1.47;;;;;;;5.59;71.15;100837.25;2082137;28;20679;-64
2022/04/19 02:44:27;;;;;;;3.27;1.20;;;;;;;5.58;71.80;100841.00;2089012;28;20286;-63
2022/04/19 02:45:41;;;;;;;3.80;1.17;;;;;;;5.62;70.96;100834.13;2082776;28;20284;-63
2022/04/19 02:46:46;;;;;;;5.57;1.00;;;;;;;5.68;70.93;100835.03;2088550;28;20283;-63
2022/04/19 02:48:07;;;;;;;4.17;1.37;;;;;;;5.74;70.68;100829.53;2097736;28;20295;-64
2022/04/19 02:49:18;;;;;;;2.47;1.10;;;;;;;5.75;70.43;100830.34;2104966;28;20282;-64
2022/04/19 02:50:23;;;;;;;4.63;1.93;;;;;;;5.69;70.59;100832.09;2097900;28;20286;-63
2022/04/19 02:51:25;;;;;;;3.37;1.27;;;;;;;5.61;71.47;100837.00;2097214;28;20278;-64
2022/04/19 02:52:29;;;;;;;4.00;1.37;;;;;;;5.55;71.15;100844.94;2081710;28;20292;-63
2022/04/19 02:53:32;;;;;;;4.87;1.30;;;;;;;5.43;71.80;100830.03;2080818;28;20314;-62
2022/04/19 02:54:37;;;;;;;3.13;1.50;;;;;;;5.45;71.92;100841.25;2089945;28;20283;-62
2022/04/19 02:55:39;;;;;;;5.10;1.20;;;;;;;5.48;71.81;100833.56;2088538;28;20651;-62
2022/04/19 02:56:42;;;;;;;3.90;1.13;;;;;;;5.51;71.69;100842.97;2081457;28;20303;-62
2022/04/19 02:57:45;;;;;;;3.73;1.30;;;;;;;5.49;71.63;100843.22;2096965;28;20654;-63
2022/04/19 02:58:52;;;;;;;2.70;1.40;;;;;;;5.48;71.93;100840.78;2105290;28;20275;-62
2022/04/19 03:00:00;;;;;;;4.07;1.17;;;;;;;5.56;72.25;100837.72;2105213;28;20290;-63
2022/04/19 03:01:05;;;;;;;5.70;1.23;;;;;;;5.56;72.08;100833.22;2105068;28;20282;-62
2022/04/19 03:02:10;;;;;;;3.80;1.30;;;;;;;5.55;71.43;100833.47;2101004;28;20282;-63
2022/04/19 03:03:12;;;;;;;4.07;1.30;;;;;;;5.51;72.30;100834.97;2089810;28;20278;-62
2022/04/19 03:04:15;;;;;;;5.03;1.30;;;;;;;5.47;72.61;100834.63;2088876;28;20284;-63
2022/04/19 03:05:21;;;;;;;2.53;1.30;;;;;;;5.56;71.76;100835.88;2088959;28;20659;-62
2022/04/19 03:06:28;;;;;;;3.67;1.37;;;;;;;5.59;72.20;100834.59;2089352;28;20295;-63
2022/04/19 03:07:35;;;;;;;4.05;1.50;;;;;;;5.64;72.22;100832.00;2096625;28;20290;-63
2022/04/19 03:08:37;;;;;;;4.93;1.63;;;;;;;5.66;71.55;100831.78;2081544;28;20046;-63
2022/04/19 03:09:44;;;;;;;3.97;1.27;;;;;;;5.70;71.47;100828.38;2081737;28;20671;-62
2022/04/19 03:10:49;;;;;;;3.20;1.10;;;;;;;5.70;71.36;100823.03;2089526;28;20727;-62
2022/04/19 03:11:54;;;;;;;2.50;1.27;;;;;;;5.69;71.21;100820.63;2089843;28;20276;-62
2022/04/19 03:12:56;;;;;;;3.40;1.40;;;;;;;5.61;71.91;100823.66;2089362;28;20292;-63
2022/04/19 03:14:06;;;;;;;2.80;1.30;;;;;;;5.54;71.43;100831.81;2089438;28;20287;-62
2022/04/19 03:15:12;;;;;;;2.27;1.17;;;;;;;5.47;71.91;100823.16;2082277;28;20288;-63
2022/04/19 03:16:15;;;;;;;2.63;1.40;;;;;;;5.53;72.22;100822.22;2098345;28;20834;-63
2022/04/19 03:17:21;;;;;;;2.10;1.40;;;;;;;5.57;72.36;100823.34;2088852;28;20290;-62
2022/04/19 03:18:24;;;;;;;5.77;1.43;;;;;;;5.58;71.97;100819.66;2082291;28;20295;-63
2022/04/19 03:19:32;;;;;;;3.47;1.40;;;;;;;5.60;71.96;100820.19;2081632;28;20280;-61
2022/04/19 03:20:38;;;;;;;4.13;1.90;;;;;;;5.51;72.78;100824.28;2091693;28;20284;-64
2022/04/19 03:21:41;;;;;;;3.77;1.10;;;;;;;5.52;71.92;100821.41;2088666;28;20272;-63
2022/04/19 03:28:26;;;;;;;2.20;1.20;;;;;;;5.62;71.98;100822.66;2088849;28;20283;-63
2022/04/19 03:29:31;;;;;;;2.93;1.30;;;;;;;5.64;71.98;100813.31;2072681;28;20288;-63
2022/04/19 03:30:37;;;;;;;3.70;1.40;;;;;;;5.72;71.69;100820.97;2066534;28;20293;-64
2022/04/19 03:31:39;;;;;;;4.53;1.40;;;;;;;5.68;71.93;100817.16;2089366;28;20296;-65
2022/04/19 03:32:45;;;;;;;4.20;1.27;;;;;;;5.72;71.65;100826.28;2089000;28;20291;-65
2022/04/19 03:33:51;;;;;;;7.37;1.70;;;;;;;5.66;72.34;100821.91;2089219;28;20635;-64
2022/04/19 03:34:54;;;;;;;4.37;1.50;;;;;;;5.54;71.87;100826.47;2088814;28;20286;-64
2022/04/19 03:35:59;;;;;;;1.90;1.30;;;;;;;5.49;72.40;100827.22;2073462;28;20823;-64
2022/04/19 03:37:00;;;;;;;5.73;1.60;;;;;;;5.43;72.81;100827.34;2081255;28;20291;-64
2022/04/19 03:38:09;;;;;;;3.83;1.57;;;;;;;5.48;72.61;100835.44;2088270;28;20334;-65
2022/04/19 03:39:12;;;;;;;4.13;1.40;;;;;;;5.44;72.82;100837.78;2081350;28;20296;-64
2022/04/19 03:40:16;;;;;;;4.67;1.33;;;;;;;5.42;73.57;100845.19;2072765;28;20664;-64
2022/04/19 03:41:18;;;;;;;6.27;1.70;;;;;;;5.42;73.65;100841.72;2081143;28;20667;-64
2022/04/19 03:42:24;;;;;;;3.70;1.27;;;;;;;5.45;73.58;100841.25;2089172;28;20679;-64
2022/04/19 03:43:32;;;;;;;5.90;1.50;;;;;;;5.51;73.20;100837.63;2096157;28;20892;-64
2022/04/19 03:44:34;;;;;;;4.70;1.30;;;;;;;5.52;73.83;100841.94;2097548;28;20282;-64
2022/04/19 03:45:39;;;;;;;4.47;1.50;;;;;;;5.51;73.02;100845.63;2089382;28;20286;-64
2022/04/19 03:48:08;;;;;;;3.87;1.50;;;;;;;5.65;73.24;100838.16;2086870;28;20283;-64
2022/04/19 03:49:12;;;;;;;6.10;1.52;;;;;;;5.71;72.84;100846.03;2088840;28;20279;-63
2022/04/19 03:50:18;;;;;;;6.43;2.03;;;;;;;5.74;73.11;100848.22;2081461;28;20287;-63
2022/04/19 03:51:25;;;;;;;3.90;1.50;;;;;;;5.74;73.43;100850.88;2097643;28;20283;-63
2022/04/19 03:52:27;;;;;;;6.73;1.60;;;;;;;5.71;73.04;100846.03;2104559;28;20281;-64
2022/04/19 03:53:33;;;;;;;5.27;1.40;;;;;;;5.71;73.39;100843.34;2088978;28;20642;-65
2022/04/19 03:54:36;;;;;;;4.37;1.20;;;;;;;5.69;73.31;100844.63;2073360;28;20281;-64
2022/04/19 03:55:38;;;;;;;3.03;1.47;;;;;;;5.65;73.44;100846.97;2073447;28;20296;-63
2022/04/19 03:56:42;;;;;;;4.97;1.20;;;;;;;5.61;73.45;100845.00;2089281;28;20275;-64
2022/04/19 03:57:43;;;;;;;3.47;1.67;;;;;;;5.57;74.08;100842.81;2104998;28;20296;-64
2022/04/19 03:58:48;;;;;;;3.73;1.30;;;;;;;5.63;73.63;100850.94;2088707;28;20813;-64
2022/04/19 03:59:58;;;;;;;5.67;1.50;;;;;;;5.68;73.84;100848.38;2074518;28;20300;-63
2022/04/19 04:01:08;;;;;;;3.10;1.50;;;;;;;5.67;73.39;100847.53;2083981;28;20775;-63
2022/04/19 04:02:13;;;;;;;6.97;1.30;;;;;;;5.67;73.54;100847.53;2102336;28;20296;-63
2022/04/19 04:03:16;;;;;;;6.00;1.47;;;;;;;5.70;73.90;100855.06;2105971;28;20282;-63
2022/04/19 04:04:22;;;;;;;8.17;1.63;;;;;;;5.68;74.42;100851.03;2105822;28;20274;-64
2022/04/19 04:05:29;;;;;;;4.53;1.60;;;;;;;5.65;74.36;100846.97;2105278;28;20282;-64
2022/04/19 04:06:35;;;;;;;4.93;1.40;;;;;;;5.62;74.25;100851.97;2098341;28;20298;-63
2022/04/19 04:07:42;;;;;;;2.47;1.30;;;;;;;5.56;74.98;100853.75;2098249;28;20271;-64
2022/04/19 04:08:50;;;;;;;3.30;1.40;;;;;;;5.56;74.29;100848.41;2083575;28;20338;-64
2022/04/19 04:09:55;;;;;;;5.10;1.50;;;;;;;5.55;74.49;100860.94;2066468;28;20289;-64
2022/04/19 04:10:58;;;;;;;4.77;1.50;;;;;;;5.56;75.02;100853.75;2075043;28;20289;-64
2022/04/19 04:12:14;;;;;;;4.97;1.57;;;;;;;5.64;75.03;100845.34;2091495;28;20283;-64
2022/04/19 04:13:18;;;;;;;5.37;1.60;;;;;;;5.70;74.54;100854.25;2090361;28;20294;-64
2022/04/19 04:14:23;;;;;;;2.50;1.30;;;;;;;5.67;74.45;100862.72;2083204;28;20295;-64
2022/04/19 04:15:28;;;;;;;4.23;1.30;;;;;;;5.58;74.92;100868.47;2082399;28;20276;-64
2022/04/19 04:16:35;;;;;;;4.57;1.60;;;;;;;5.51;75.16;100865.09;2082783;28;20273;-64
2022/04/19 04:17:37;;;;;;;2.97;1.47;;;;;;;5.39;75.32;100863.53;2082779;28;20284;-64
2022/04/19 04:18:42;;;;;;;4.70;1.67;;;;;;;5.39;75.76;100868.84;2082626;28;20283;-64
2022/04/19 04:19:44;;;;;;;4.70;1.67;;;;;;;5.37;76.04;100865.63;2089623;28;20294;-64
2022/04/19 04:20:54;;;;;;;8.23;1.70;;;;;;;5.36;76.04;100864.81;2075014;28;20300;-63
2022/04/19 04:21:59;;;;;;;7.30;1.50;;;;;;;5.37;76.24;100844.31;2073867;28;20296;-63
2022/04/19 04:23:04;;;;;;;4.63;1.40;;;;;;;5.40;76.00;100844.63;2082434;28;20296;-64
2022/04/19 04:24:08;;;;;;;3.40;1.70;;;;;;;5.45;76.44;100859.91;2092273;28;20651;-63
2022/04/19 04:25:22;;;;;;;4.57;1.63;;;;;;;5.37;76.46;100873.63;2081638;28;20795;-63
2022/04/19 04:26:27;;;;;;;4.53;1.87;;;;;;;5.35;76.87;100874.66;2090160;28;20287;-63
2022/04/19 04:27:30;;;;;;;4.30;1.60;;;;;;;5.27;76.41;100856.38;2096936;28;20305;-63
2022/04/19 04:28:31;;;;;;;3.93;1.57;;;;;;;5.30;76.78;100853.25;2081665;28;20291;-63
2022/04/19 04:29:34;;;;;;;3.10;1.50;;;;;;;5.34;77.05;100867.72;2073358;28;20866;-62
2022/04/19 04:30:36;;;;;;;4.67;1.77;;;;;;;5.34;76.95;100864.25;2073699;28;20285;-62
2022/04/19 04:31:41;;;;;;;2.07;1.70;;;;;;;5.34;76.91;100869.56;2082728;28;20280;-63
2022/04/19 04:32:50;;;;;;;6.33;1.40;;;;;;;5.31;77.36;100868.19;2074503;28;20288;-63
2022/04/19 04:33:51;;;;;;;7.73;1.50;;;;;;;5.30;77.02;100858.56;2074099;28;20292;-62
2022/04/19 04:34:57;;;;;;;5.37;1.70;;;;;;;5.30;77.48;100869.25;2089828;28;20279;-62
2022/04/19 04:36:01;;;;;;;6.37;1.60;;;;;;;5.30;77.11;100866.56;2096844;28;20285;-62
2022/04/19 04:37:05;;;;;;;2.27;1.40;;;;;;;5.33;77.15;100866.09;2082136;28;20284;-62
2022/04/19 04:38:13;;;;;;;8.60;1.67;;;;;;;5.42;77.87;100881.72;2083374;28;20817;-62
2022/04/19 04:39:22;;;;;;;4.63;1.53;;;;;;;5.39;77.49;100882.19;2086834;28;20283;-63
2022/04/19 04:40:43;;;;;;;6.00;1.80;;;;;;;5.35;77.68;100879.19;2090364;28;20297;-62
2022/04/19 04:41:49;;;;;;;3.97;1.60;;;;;;;5.33;78.04;100879.44;2088305;28;20294;-62
2022/04/19 04:42:55;;;;;;;5.87;1.70;;;;;;;5.33;78.24;100871.44;2089649;28;20291;-62
2022/04/19 04:44:01;;;;;;;5.73;1.60;;;;;;;5.37;78.22;100870.97;2095977;28;20640;-62
2022/04/19 04:45:07;;;;;;;6.83;1.70;;;;;;;5.39;77.93;100877.69;2096239;28;20287;-62
2022/04/19 04:50:19;;;;;;;5.37;1.80;;;;;;;5.46;77.59;100874.88;2103264;28;20282;-63
2022/04/19 04:51:22;;;;;;;6.07;1.60;;;;;;;5.49;77.20;100880.56;2087467;28;20650;-62
2022/04/19 04:52:28;;;;;;;4.17;1.50;;;;;;;5.54;76.90;100888.63;2087995;28;20292;-62
2022/04/19 04:53:37;;;;;;;5.73;1.80;;;;;;;5.63;76.74;100881.06;2102086;28;20316;-62
2022/04/19 04:54:50;;;;;;;8.83;1.70;;;;;;;5.69;77.01;100885.47;2081060;28;20659;-62
2022/04/19 04:56:00;;;;;;;4.87;1.70;;;;;;;5.66;76.21;100890.47;2079234;28;20821;-63
2022/04/19 04:57:07;;;;;;;5.80;1.70;;;;;;;5.63;76.78;100897.06;2071106;28;20642;-63
2022/04/19 04:58:14;;;;;;;5.40;1.53;;;;;;;5.57;77.15;100893.50;2079179;28;20706;-62
2022/04/19 04:59:18;;;;;;;3.70;1.50;;;;;;;5.62;76.70;100894.66;2070477;28;20715;-62
2022/04/19 05:00:20;;;;;;;6.80;1.70;;;;;;;5.68;76.67;100881.19;2071621;28;20311;-64
2022/04/19 05:01:50;;;;;;;9.53;2.97;;;;;;;6.03;77.33;100890.91;2117972;27;20387;-63
2022/04/19 05:02:54;;;;;;;5.90;2.27;;;;;;;5.97;76.71;100884.69;2108631;28;20299;-62
2022/04/19 05:03:57;;;;;;;4.97;2.10;;;;;;;5.96;75.75;100890.28;2093049;28;20712;-63
2022/04/19 05:05:02;;;;;;;5.47;2.07;;;;;;;5.95;75.70;100880.63;2092730;28;20694;-64
2022/04/19 05:06:09;;;;;;;5.07;2.40;;;;;;;5.90;75.19;100885.84;2092042;28;20291;-63
2022/04/19 05:07:17;;;;;;;5.15;2.17;;;;;;;5.84;75.01;100887.63;2091582;28;20287;-63
2022/04/19 05:08:28;;;;;;;6.53;1.83;;;;;;;5.80;74.75;100881.13;2084076;28;20064;-62
2022/04/19 05:09:30;;;;;;;4.00;2.00;;;;;;;5.89;74.03;100884.22;2084044;28;20825;-62
2022/04/19 05:10:41;;;;;;;5.70;2.13;;;;;;;5.95;73.80;100878.75;2084539;28;20279;-62
2022/04/19 05:11:52;;;;;;;4.83;1.90;;;;;;;5.97;73.48;100883.88;2076546;28;20774;-62
2022/04/19 05:12:59;;;;;;;4.27;1.57;;;;;;;5.95;72.51;100873.41;2090381;28;20287;-62
2022/04/19 05:14:04;;;;;;;3.77;1.53;;;;;;;5.94;72.99;100876.34;2091280;28;20762;-63
2022/04/19 05:15:07;;;;;;;6.67;1.70;;;;;;;5.98;72.40;100874.81;2078977;28;20819;-62
2022/04/19 05:16:18;;;;;;;3.90;1.40;;;;;;;5.93;71.81;100875.53;2062590;28;20296;-62
2022/04/19 05:17:22;;;;;;;5.67;1.50;;;;;;;5.93;71.19;100866.72;2080522;28;20299;-63
2022/04/19 05:18:30;;;;;;;2.93;1.40;;;;;;;5.94;70.47;100877.16;2092408;28;20635;-62
2022/04/19 05:19:40;;;;;;;3.37;1.70;;;;;;;5.96;70.00;100879.59;2077625;28;20935;-62
2022/04/19 05:20:42;;;;;;;2.73;1.50;;;;;;;5.91;69.89;100876.78;2085321;28;20295;-69
2022/04/19 05:21:44;;;;;;;7.63;1.87;;;;;;;5.89;69.89;100882.34;2092443;28;20306;-69
2022/04/19 05:22:49;;;;;;;5.77;1.60;;;;;;;5.88;69.24;100877.28;2084376;28;20283;-70
2022/04/19 05:23:55;;;;;;;4.63;1.60;;;;;;;5.90;69.35;100869.84;2096145;28;20357;-68
2022/04/19 05:24:59;;;;;;;4.63;1.53;;;;;;;5.91;69.32;100877.59;2091674;28;20669;-66
2022/04/19 05:26:05;;;;;;;3.03;1.63;;;;;;;6.01;68.79;100866.31;2077673;28;20378;-68
2022/04/19 05:27:07;;;;;;;5.40;1.53;;;;;;;6.08;69.13;100866.97;2084751;28;20296;-68
2022/04/19 05:28:11;;;;;;;3.33;1.60;;;;;;;6.02;68.65;100862.59;2070176;28;20297;-68
2022/04/19 05:29:15;;;;;;;2.30;1.50;;;;;;;6.03;68.49;100873.03;2070609;28;20677;-69
2022/04/19 05:30:19;;;;;;;4.83;1.30;;;;;;;6.03;67.81;100872.25;2068514;28;20293;-68